createdAt,value
2022-12-20T00:01:34.841Z,5.80
2022-12-20T00:04:05.642Z,5.50
2022-12-20T00:06:36.084Z,6.00
2022-12-20T00:09:05.877Z,6.00
2022-12-20T00:11:33.516Z,5.85
2022-12-20T00:14:00.808Z,5.68
2022-12-20T00:16:29.408Z,5.82
2022-12-20T00:19:00.115Z,4.97
2022-12-20T00:21:28.630Z,5.22
2022-12-20T00:23:56.475Z,4.80
2022-12-20T00:26:28.391Z,5.82
2022-12-20T00:28:56.746Z,5.03
2022-12-20T00:31:25.598Z,4.63
2022-12-20T00:33:54.810Z,4.82
2022-12-20T00:36:23.395Z,5.13
2022-12-20T00:38:52.721Z,4.90
2022-12-20T00:41:23.199Z,4.93
2022-12-20T00:43:50.577Z,5.03
2022-12-20T00:46:19.489Z,4.60
2022-12-20T00:48:47.289Z,4.47
2022-12-20T00:51:17.646Z,4.38
2022-12-20T00:53:45.562Z,4.53
2022-12-20T00:56:13.480Z,4.10
2022-12-20T00:58:42.499Z,4.38
2022-12-20T01:01:24.977Z,3.90
2022-12-20T01:03:53.989Z,3.80
2022-12-20T01:06:23.270Z,4.18
2022-12-20T01:08:50.790Z,4.00
2022-12-20T01:11:23.883Z,4.10
2022-12-20T01:13:54.837Z,4.35
2022-12-20T01:16:25.619Z,3.80
2022-12-20T01:18:53.672Z,3.72
2022-12-20T01:21:23.231Z,3.70
2022-12-20T01:23:50.956Z,3.53
2022-12-20T01:26:22.247Z,3.53
2022-12-20T01:28:52.661Z,3.45
2022-12-20T01:31:20.702Z,3.88
2022-12-20T01:33:49.991Z,3.38
2022-12-20T01:36:26.016Z,3.13
2022-12-20T01:38:58.364Z,3.15
2022-12-20T01:41:26.858Z,3.17
2022-12-20T01:44:04.135Z,3.08
2022-12-20T01:46:39.662Z,3.53
2022-12-20T01:49:14.524Z,3.10
2022-12-20T01:51:46.987Z,3.00
2022-12-20T01:54:28.204Z,3.08
2022-12-20T01:57:01.425Z,2.88
2022-12-20T01:59:29.497Z,2.80
2022-12-20T02:02:04.119Z,2.25
2022-12-20T02:06:59.391Z,2.78
2022-12-20T02:09:27.568Z,2.53
2022-12-20T02:12:11.356Z,2.55
2022-12-20T02:15:00.158Z,2.88
2022-12-20T02:17:39.416Z,2.47
2022-12-20T02:20:44.022Z,2.53
2022-12-20T02:23:32.488Z,2.50
2022-12-20T02:26:37.210Z,2.63
2022-12-20T02:29:29.085Z,2.30
2022-12-20T02:32:14.539Z,2.10
2022-12-20T02:34:42.922Z,2.30
2022-12-20T02:37:11.098Z,2.10
2022-12-20T02:39:40.765Z,2.22
2022-12-20T02:42:21.915Z,2.20
2022-12-20T02:45:15.536Z,2.05
2022-12-20T02:47:57.688Z,2.25
2022-12-20T02:50:32.719Z,2.35
2022-12-20T02:53:00.523Z,2.08
2022-12-20T02:55:45.980Z,2.40
2022-12-20T02:58:23.416Z,2.63
2022-12-20T03:00:54.651Z,2.28
2022-12-20T03:03:25.704Z,2.20
2022-12-20T03:05:55.412Z,2.15
2022-12-20T03:08:24.130Z,2.20
2022-12-20T03:10:52.511Z,2.53
2022-12-20T03:13:20.188Z,1.92
2022-12-20T03:15:47.407Z,2.00
2022-12-20T03:18:14.669Z,1.77
2022-12-20T03:20:42.089Z,2.30
2022-12-20T03:23:09.332Z,2.20
2022-12-20T03:25:36.603Z,1.88
2022-12-20T03:28:03.992Z,2.05
2022-12-20T03:30:31.510Z,2.15
2022-12-20T03:32:58.942Z,2.00
2022-12-20T03:35:26.267Z,2.00
2022-12-20T03:37:53.587Z,1.80
2022-12-20T03:40:20.920Z,1.88
2022-12-20T03:42:48.171Z,2.00
2022-12-20T03:45:15.744Z,1.95
2022-12-20T03:47:43.042Z,1.98
2022-12-20T03:50:10.704Z,2.15
2022-12-20T03:52:38.180Z,1.98
2022-12-20T03:55:06.308Z,2.08
2022-12-20T03:57:33.561Z,2.10
2022-12-20T04:00:00.844Z,1.90
2022-12-20T04:02:28.370Z,2.03
2022-12-20T04:04:55.753Z,2.00
2022-12-20T04:07:23.050Z,1.90
2022-12-20T04:09:50.272Z,1.90
2022-12-20T04:12:17.490Z,2.38
2022-12-20T04:14:44.780Z,1.73
2022-12-20T04:17:12.121Z,2.45
2022-12-20T04:19:39.342Z,1.77
2022-12-20T04:22:06.674Z,1.90
2022-12-20T04:24:33.962Z,1.70
2022-12-20T04:27:01.202Z,1.80
2022-12-20T04:29:28.601Z,1.70
2022-12-20T04:31:55.960Z,1.98
2022-12-20T04:34:23.221Z,1.40
2022-12-20T04:36:50.466Z,1.70
2022-12-20T04:39:17.678Z,1.73
2022-12-20T04:41:44.936Z,1.50
2022-12-20T04:44:12.223Z,1.80
2022-12-20T04:46:39.847Z,1.77
2022-12-20T04:49:07.166Z,1.50
2022-12-20T04:51:34.520Z,1.83
2022-12-20T04:54:01.822Z,1.60
2022-12-20T04:56:29.875Z,1.38
2022-12-20T04:58:59.207Z,1.60
2022-12-20T05:01:27.379Z,1.70
2022-12-20T05:03:54.925Z,1.60
2022-12-20T05:06:22.467Z,1.55
2022-12-20T05:08:49.896Z,1.30
2022-12-20T05:11:17.268Z,1.60
2022-12-20T05:13:44.555Z,1.60
2022-12-20T05:16:12.037Z,1.60
2022-12-20T05:18:46.437Z,1.60
2022-12-20T05:21:34.068Z,1.70
2022-12-20T05:24:19.641Z,1.77
2022-12-20T05:26:46.920Z,1.52
2022-12-20T05:29:14.157Z,1.70
2022-12-20T05:31:41.690Z,1.60
2022-12-20T05:34:08.992Z,1.70
2022-12-20T05:36:36.337Z,1.52
2022-12-20T05:39:04.806Z,1.67
2022-12-20T05:41:32.665Z,1.60
2022-12-20T05:43:59.944Z,1.73
2022-12-20T05:46:27.326Z,1.67
2022-12-20T05:48:54.636Z,1.80
2022-12-20T05:51:21.886Z,1.70
2022-12-20T05:53:49.139Z,1.80
2022-12-20T05:56:16.832Z,2.00
2022-12-20T05:58:44.337Z,1.70
2022-12-20T06:01:11.701Z,1.65
2022-12-20T06:03:40.556Z,1.90
2022-12-20T06:06:13.971Z,1.75
2022-12-20T06:08:42.786Z,2.00
2022-12-20T06:11:10.495Z,1.80
2022-12-20T06:13:37.854Z,1.52
2022-12-20T06:16:05.412Z,1.83
2022-12-20T06:18:32.788Z,1.42
2022-12-20T06:21:00.213Z,1.65
2022-12-20T06:23:27.450Z,1.60
2022-12-20T06:25:55.285Z,1.83
2022-12-20T06:28:22.663Z,1.95
2022-12-20T06:30:57.591Z,1.70
2022-12-20T06:33:25.480Z,1.92
2022-12-20T06:35:53.427Z,1.90
2022-12-20T06:38:20.652Z,1.65
2022-12-20T06:40:47.896Z,1.67
2022-12-20T06:43:15.108Z,1.60
2022-12-20T06:45:42.932Z,1.95
2022-12-20T06:48:10.686Z,1.83
2022-12-20T06:50:40.929Z,1.60
2022-12-20T06:53:08.320Z,1.90
2022-12-20T06:55:35.721Z,1.70
2022-12-20T06:58:04.253Z,1.90
2022-12-20T07:00:31.674Z,1.60
2022-12-20T07:02:59.428Z,1.65
2022-12-20T07:05:27.475Z,1.40
2022-12-20T07:07:54.767Z,1.60
2022-12-20T07:10:22.054Z,1.50
2022-12-20T07:12:49.394Z,1.70
2022-12-20T07:15:17.529Z,1.52
2022-12-20T07:17:45.042Z,1.75
2022-12-20T07:20:14.182Z,1.50
2022-12-20T07:22:41.747Z,1.77
2022-12-20T07:25:10.458Z,1.80
2022-12-20T07:27:37.721Z,1.58
2022-12-20T07:30:06.079Z,1.77
2022-12-20T07:32:33.371Z,1.70
2022-12-20T07:35:01.465Z,2.13
2022-12-20T07:37:29.982Z,2.05
2022-12-20T07:39:57.236Z,2.50
2022-12-20T07:42:31.791Z,2.53
2022-12-20T07:45:02.971Z,2.47
2022-12-20T07:47:30.647Z,2.33
2022-12-20T07:49:57.902Z,2.53
2022-12-20T07:52:28.009Z,2.97
2022-12-20T07:55:01.360Z,3.10
2022-12-20T07:57:36.930Z,2.85
2022-12-20T08:00:05.642Z,2.90
2022-12-20T08:02:48.619Z,2.75
2022-12-20T08:05:16.605Z,3.10
2022-12-20T08:07:46.726Z,3.15
2022-12-20T08:10:17.266Z,2.75
2022-12-20T08:12:47.361Z,2.75
2022-12-20T08:15:14.807Z,2.42
2022-12-20T08:17:42.089Z,3.05
2022-12-20T08:20:09.859Z,2.92
2022-12-20T08:22:37.177Z,2.60
2022-12-20T08:25:05.222Z,2.72
2022-12-20T08:27:32.514Z,2.53
2022-12-20T08:29:59.904Z,2.70
2022-12-20T08:32:27.677Z,2.50
2022-12-20T08:34:55.927Z,2.55
2022-12-20T08:37:23.157Z,2.35
2022-12-20T08:39:50.489Z,2.63
2022-12-20T08:42:17.702Z,2.47
2022-12-20T08:44:45.078Z,2.30
2022-12-20T08:47:12.596Z,2.33
2022-12-20T08:49:45.628Z,2.65
2022-12-20T08:52:15.116Z,2.47
2022-12-20T08:54:42.398Z,2.67
2022-12-20T08:57:09.805Z,2.22
2022-12-20T08:59:37.104Z,2.42
2022-12-20T09:02:04.731Z,2.47
2022-12-20T09:04:32.348Z,2.17
2022-12-20T09:06:59.667Z,2.45
2022-12-20T09:09:27.017Z,2.47
2022-12-20T09:11:54.430Z,2.10
2022-12-20T09:14:21.703Z,2.00
2022-12-20T09:16:49.277Z,2.17
2022-12-20T09:19:16.783Z,2.00
2022-12-20T09:21:44.233Z,2.17
2022-12-20T09:24:11.746Z,1.77
2022-12-20T09:26:40.767Z,1.90
2022-12-20T09:29:08.170Z,1.92
2022-12-20T09:31:36.959Z,1.70
2022-12-20T09:34:04.428Z,2.00
2022-12-20T09:36:32.013Z,1.83
2022-12-20T09:38:59.314Z,1.90
2022-12-20T09:41:43.148Z,1.75
2022-12-20T09:44:32.199Z,1.98
2022-12-20T09:47:10.792Z,1.98
2022-12-20T09:49:43.239Z,1.70
2022-12-20T09:52:32.300Z,1.60
2022-12-20T09:55:18.851Z,1.67
2022-12-20T09:58:00.448Z,1.75
2022-12-20T10:00:28.460Z,1.63
2022-12-20T10:03:06.173Z,2.10
2022-12-20T10:05:41.125Z,1.90
2022-12-20T10:08:16.202Z,1.52
2022-12-20T10:10:52.828Z,1.55
2022-12-20T10:13:23.023Z,1.67
2022-12-20T10:16:00.635Z,1.73
2022-12-20T10:18:52.513Z,1.70
2022-12-20T10:21:38.331Z,1.70
2022-12-20T10:24:25.222Z,1.90
2022-12-20T10:26:52.608Z,1.65
2022-12-20T10:29:21.254Z,1.75
2022-12-20T10:32:01.652Z,1.45
2022-12-20T10:34:36.592Z,1.50
2022-12-20T10:37:16.220Z,1.50
2022-12-20T10:39:47.846Z,1.40
2022-12-20T10:42:42.377Z,2.13
2022-12-20T10:45:18.895Z,2.00
2022-12-20T10:47:49.987Z,1.88
2022-12-20T10:50:20.514Z,1.77
2022-12-20T10:53:10.821Z,1.80
2022-12-20T10:55:39.565Z,1.70
2022-12-20T10:58:21.555Z,1.60
2022-12-20T11:00:49.796Z,1.40
2022-12-20T11:03:21.547Z,1.55
2022-12-20T11:05:59.617Z,1.42
2022-12-20T11:08:39.249Z,1.60
2022-12-20T11:11:16.571Z,1.80
2022-12-20T11:13:45.504Z,1.27
2022-12-20T11:16:35.587Z,1.50
2022-12-20T11:19:27.227Z,1.40
2022-12-20T11:22:13.074Z,1.38
2022-12-20T11:24:49.352Z,1.27
2022-12-20T11:27:32.225Z,1.52
2022-12-20T11:30:09.779Z,1.58
2022-12-20T11:33:15.895Z,1.60
2022-12-20T11:36:17.517Z,1.40
2022-12-20T11:39:11.041Z,1.42
2022-12-20T11:41:55.698Z,1.58
2022-12-20T11:44:31.287Z,1.30
2022-12-20T11:47:12.575Z,1.45
2022-12-20T11:49:49.085Z,1.60
2022-12-20T11:52:52.142Z,1.52
2022-12-20T11:55:26.525Z,1.60
2022-12-20T11:58:18.242Z,1.30
2022-12-20T12:00:54.220Z,1.50
2022-12-20T12:03:36.981Z,1.50
2022-12-20T12:06:10.446Z,1.67
2022-12-20T12:08:50.437Z,1.33
2022-12-20T12:12:09.200Z,1.40
2022-12-20T12:15:15.920Z,1.20
2022-12-20T12:18:00.598Z,1.40
2022-12-20T12:20:45.360Z,1.40
2022-12-20T12:23:31.108Z,1.35
2022-12-20T12:26:05.003Z,1.38
2022-12-20T12:28:33.187Z,1.40
2022-12-20T12:31:18.458Z,1.35
2022-12-20T12:34:06.863Z,1.50
2022-12-20T12:36:50.335Z,1.30
2022-12-20T12:39:40.275Z,1.45
2022-12-20T12:42:49.020Z,1.40
2022-12-20T12:45:28.428Z,1.33
2022-12-20T12:48:03.490Z,1.35
2022-12-20T12:50:36.813Z,1.65
2022-12-20T12:53:12.816Z,1.50
2022-12-20T12:55:47.660Z,1.45
2022-12-20T12:58:30.092Z,1.50
2022-12-20T13:01:00.619Z,1.40
2022-12-20T13:03:46.048Z,1.50
2022-12-20T13:06:25.672Z,1.42
2022-12-20T13:08:58.977Z,1.42
2022-12-20T13:11:46.567Z,1.50
2022-12-20T13:14:27.687Z,1.25
2022-12-20T13:17:19.357Z,1.30
2022-12-20T13:19:56.203Z,1.40
2022-12-20T13:22:26.119Z,1.40
2022-12-20T13:24:58.852Z,1.30
2022-12-20T13:27:38.923Z,1.50
2022-12-20T13:30:13.372Z,1.42
2022-12-20T13:33:17.523Z,1.40
2022-12-20T13:36:10.612Z,1.63
2022-12-20T13:38:51.794Z,1.40
2022-12-20T13:41:35.346Z,1.50
2022-12-20T13:44:14.949Z,1.50
2022-12-20T13:46:51.063Z,1.48
2022-12-20T13:49:39.127Z,1.67
2022-12-20T13:52:14.852Z,1.33
2022-12-20T13:54:48.903Z,1.30
2022-12-20T13:57:21.162Z,1.60
2022-12-20T13:59:53.074Z,1.45
2022-12-20T14:02:27.704Z,1.70
2022-12-20T14:07:37.758Z,1.50
2022-12-20T14:10:18.123Z,1.30
2022-12-20T14:12:46.515Z,1.60
2022-12-20T14:15:29.899Z,1.67
2022-12-20T14:17:57.461Z,1.40
2022-12-20T14:20:37.236Z,1.50
2022-12-20T14:23:19.860Z,1.48
2022-12-20T14:25:55.053Z,1.50
2022-12-20T14:28:33.482Z,1.40
2022-12-20T14:31:01.960Z,1.30
2022-12-20T14:33:35.746Z,1.40
2022-12-20T14:36:19.042Z,1.40
2022-12-20T14:38:51.571Z,1.40
2022-12-20T14:41:35.263Z,1.20
2022-12-20T14:44:18.096Z,1.23
2022-12-20T14:47:15.495Z,1.20
2022-12-20T14:49:57.089Z,1.33
2022-12-20T14:52:38.084Z,1.20
2022-12-20T14:55:09.457Z,1.40
2022-12-20T14:57:37.745Z,1.40
2022-12-20T15:00:21.998Z,1.33
2022-12-20T15:02:56.651Z,1.30
2022-12-20T15:05:36.934Z,1.70
2022-12-20T15:08:16.537Z,1.52
2022-12-20T15:10:50.043Z,1.55
2022-12-20T15:13:19.650Z,1.63
2022-12-20T15:15:47.368Z,1.25
2022-12-20T15:18:17.088Z,1.40
2022-12-20T15:20:48.086Z,1.38
2022-12-20T15:23:18.121Z,1.35
2022-12-20T15:25:46.208Z,1.50
2022-12-20T15:28:20.222Z,1.15
2022-12-20T15:30:49.359Z,1.52
2022-12-20T15:33:30.784Z,1.30
2022-12-20T15:35:58.035Z,1.10
2022-12-20T15:38:47.463Z,1.30
2022-12-20T15:41:24.692Z,1.50
2022-12-20T15:43:57.608Z,1.48
2022-12-20T15:46:26.181Z,1.40
2022-12-20T15:48:54.444Z,1.40
2022-12-20T15:51:32.039Z,1.52
2022-12-20T15:54:02.237Z,1.40
2022-12-20T15:56:29.935Z,1.90
2022-12-20T15:58:57.303Z,1.50
2022-12-20T16:01:40.635Z,1.60
2022-12-20T16:04:13.744Z,1.52
2022-12-20T16:06:41.533Z,1.58
2022-12-20T16:09:09.022Z,1.70
2022-12-20T16:11:36.538Z,1.77
2022-12-20T16:14:03.888Z,1.65
2022-12-20T16:16:33.826Z,1.60
2022-12-20T16:19:01.931Z,1.95
2022-12-20T16:21:33.868Z,1.60
2022-12-20T16:24:01.133Z,1.60
2022-12-20T16:26:28.588Z,2.00
2022-12-20T16:28:57.664Z,2.10
2022-12-20T16:31:34.395Z,2.00
2022-12-20T16:34:04.591Z,2.30
2022-12-20T16:36:33.374Z,2.25
2022-12-20T16:39:00.723Z,2.30
2022-12-20T16:41:30.058Z,2.30
2022-12-20T16:43:59.769Z,2.50
2022-12-20T16:46:29.202Z,2.72
2022-12-20T16:48:58.109Z,2.53
2022-12-20T16:51:30.478Z,2.80
2022-12-20T16:54:19.229Z,2.80
2022-12-20T16:56:47.712Z,3.00
2022-12-20T16:59:21.159Z,3.15
2022-12-20T17:01:51.898Z,3.78
2022-12-20T17:04:20.318Z,3.50
2022-12-20T17:06:47.618Z,3.30
2022-12-20T17:09:18.610Z,4.18
2022-12-20T17:11:46.337Z,4.22
2022-12-20T17:14:13.839Z,4.97
2022-12-20T17:16:41.935Z,4.72
2022-12-20T17:19:10.860Z,4.70
2022-12-20T17:24:26.971Z,5.38
2022-12-20T17:26:55.264Z,5.15
2022-12-20T17:29:22.599Z,5.45
2022-12-20T17:31:49.941Z,5.38
2022-12-20T17:34:18.053Z,5.85
2022-12-20T17:36:46.437Z,5.65
2022-12-20T17:39:13.876Z,5.95
2022-12-20T17:41:42.668Z,5.95
2022-12-20T17:44:26.884Z,5.90
2022-12-20T17:46:56.005Z,6.32
2022-12-20T17:49:24.443Z,6.45
2022-12-20T17:51:52.354Z,6.30
2022-12-20T17:54:22.026Z,7.10
2022-12-20T17:56:50.098Z,7.03
2022-12-20T17:59:18.088Z,7.38
2022-12-20T18:01:46.560Z,7.22
2022-12-20T18:04:16.243Z,7.10
2022-12-20T18:06:45.447Z,7.15
2022-12-20T18:09:18.466Z,7.40
2022-12-20T18:11:46.181Z,7.38
2022-12-20T18:14:14.072Z,7.15
2022-12-20T18:16:41.856Z,7.20
2022-12-20T18:19:15.482Z,7.00
2022-12-20T18:21:42.823Z,7.47
2022-12-20T18:24:14.666Z,7.50
2022-12-20T18:26:42.778Z,7.95
2022-12-20T18:29:11.328Z,7.45
2022-12-20T18:31:39.345Z,7.20
2022-12-20T18:34:07.117Z,7.75
2022-12-20T18:36:36.978Z,8.00
2022-12-20T18:39:07.317Z,7.78
2022-12-20T18:41:35.606Z,8.00
2022-12-20T18:44:05.937Z,7.75
2022-12-20T18:46:33.752Z,7.88
2022-12-20T18:49:02.152Z,7.88
2022-12-20T18:51:33.010Z,8.50
2022-12-20T18:54:01.108Z,8.32
2022-12-20T18:56:31.275Z,8.10
2022-12-20T18:59:06.221Z,8.10
2022-12-20T19:01:38.790Z,7.90
2022-12-20T19:04:07.332Z,8.30
2022-12-20T19:06:35.818Z,8.45
2022-12-20T19:09:05.466Z,8.27
2022-12-20T19:11:33.048Z,8.38
2022-12-20T19:14:00.713Z,9.05
2022-12-20T19:16:32.271Z,9.18
2022-12-20T19:19:03.619Z,9.15
2022-12-20T19:21:33.100Z,8.57
2022-12-20T19:24:05.206Z,8.80
2022-12-20T19:26:33.175Z,8.85
2022-12-20T19:29:00.565Z,8.85
2022-12-20T19:31:30.303Z,9.40
2022-12-20T19:34:01.726Z,9.07
2022-12-20T19:36:32.279Z,9.57
2022-12-20T19:39:01.155Z,9.18
2022-12-20T19:41:31.510Z,9.18
2022-12-20T19:43:59.580Z,10.15
2022-12-20T19:46:29.779Z,10.00
2022-12-20T19:48:58.500Z,10.45
2022-12-20T19:51:26.963Z,10.52
2022-12-20T19:53:55.735Z,10.95
2022-12-20T19:56:25.876Z,12.23
2022-12-20T19:58:54.062Z,19.25
2022-12-20T20:01:25.582Z,20.95
2022-12-20T20:03:54.681Z,19.23
2022-12-20T20:06:23.217Z,18.55
2022-12-20T20:08:51.268Z,18.90
2022-12-20T20:11:19.427Z,17.77
2022-12-20T20:13:46.926Z,17.73
2022-12-20T20:16:21.565Z,17.42
2022-12-20T20:18:50.134Z,17.88
2022-12-20T20:21:21.347Z,16.52
2022-12-20T20:23:50.637Z,16.50
2022-12-20T20:26:21.445Z,16.60
2022-12-20T20:28:49.206Z,15.43
2022-12-20T20:31:18.067Z,16.02
2022-12-20T20:33:46.056Z,16.67
2022-12-20T20:36:16.301Z,16.00
2022-12-20T20:38:43.632Z,15.80
2022-12-20T20:41:11.618Z,15.80
2022-12-20T20:43:39.193Z,15.07
2022-12-20T20:46:08.625Z,16.10
2022-12-20T20:48:36.286Z,15.23
2022-12-20T20:51:04.669Z,15.93
2022-12-20T20:53:34.292Z,15.98
2022-12-20T20:56:06.496Z,15.05
2022-12-20T20:58:34.573Z,15.02
2022-12-20T21:01:03.864Z,15.73
2022-12-20T21:03:31.966Z,15.13
2022-12-20T21:06:34.876Z,14.48
2022-12-20T21:08:46.699Z,14.35
2022-12-20T21:11:14.163Z,15.30
2022-12-20T21:15:22.316Z,15.43
2022-12-20T21:17:50.506Z,14.93
2022-12-20T21:20:22.196Z,15.10
2022-12-20T21:22:53.008Z,14.05
2022-12-20T21:25:20.310Z,13.88
2022-12-20T21:27:48.191Z,13.93
2022-12-20T21:30:15.601Z,13.73
2022-12-20T21:32:42.932Z,13.43
2022-12-20T21:35:10.500Z,13.02
2022-12-20T21:37:37.814Z,13.30
2022-12-20T21:40:05.900Z,13.40
2022-12-20T21:42:33.183Z,12.73
2022-12-20T21:45:00.514Z,13.30
2022-12-20T21:47:27.864Z,13.07
2022-12-20T21:49:55.184Z,12.27
2022-12-20T21:52:22.513Z,13.30
2022-12-20T21:54:49.816Z,12.68
2022-12-20T21:57:17.076Z,12.95
2022-12-20T21:59:44.469Z,13.13
2022-12-20T22:02:14.453Z,12.38
2022-12-20T22:04:41.810Z,12.05
2022-12-20T22:07:09.099Z,12.48
2022-12-20T22:09:36.371Z,12.48
2022-12-20T22:12:03.747Z,12.07
2022-12-20T22:14:31.146Z,11.95
2022-12-20T22:16:58.421Z,11.50
2022-12-20T22:19:25.782Z,11.63
2022-12-20T22:21:58.005Z,11.10
2022-12-20T22:24:25.667Z,11.45
2022-12-20T22:26:53.031Z,11.32
2022-12-20T22:29:20.328Z,10.77
2022-12-20T22:31:47.661Z,10.73
2022-12-20T22:34:15.329Z,10.68
2022-12-20T22:36:43.735Z,10.35
2022-12-20T22:39:11.093Z,10.05
2022-12-20T22:41:38.430Z,10.82
2022-12-20T22:44:05.752Z,10.65
2022-12-20T22:46:33.764Z,10.00
2022-12-20T22:49:01.552Z,10.25
2022-12-20T22:51:31.767Z,9.63
2022-12-20T22:53:59.932Z,9.63
2022-12-20T22:56:27.474Z,9.43
2022-12-20T22:58:54.791Z,9.38
2022-12-20T23:01:22.373Z,9.48
2022-12-20T23:03:50.423Z,9.23
2022-12-20T23:06:20.834Z,9.80
2022-12-20T23:08:49.218Z,9.15
2022-12-20T23:11:43.997Z,9.35
2022-12-20T23:14:40.263Z,9.10
2022-12-20T23:17:10.308Z,9.40
2022-12-20T23:19:56.113Z,8.93
2022-12-20T23:22:43.151Z,9.23
2022-12-20T23:25:15.181Z,8.68
2022-12-20T23:27:44.598Z,8.13
2022-12-20T23:30:15.595Z,8.27
2022-12-20T23:32:44.764Z,8.30
2022-12-20T23:35:18.208Z,8.20
2022-12-20T23:37:46.050Z,8.73
2022-12-20T23:40:14.810Z,8.52
2022-12-20T23:42:42.239Z,8.05
2022-12-20T23:45:10.680Z,7.82
2022-12-20T23:47:38.030Z,8.30
2022-12-20T23:50:06.071Z,8.02
2022-12-20T23:52:33.396Z,7.47
2022-12-20T23:55:00.707Z,7.82
2022-12-20T23:57:30.700Z,7.90
2022-12-20T23:59:57.977Z,8.20
